sensor_id;sensor_type;location;lat;lon;timestamp;temperature;humidity
43338;DHT22;28933;52.492;13.434;2023-08-01T00:01:20;20.40;99.90
43338;DHT22;28933;52.492;13.434;2023-08-01T00:04:06;20.30;99.90
43338;DHT22;28933;52.492;13.434;2023-08-01T00:06:52;20.30;99.90
43338;DHT22;28933;52.492;13.434;2023-08-01T00:09:38;20.30;99.90
43338;DHT22;28933;52.492;13.434;2023-08-01T00:12:24;20.30;99.90
43338;DHT22;28933;52.492;13.434;2023-08-01T00:15:10;20.20;99.90
43338;DHT22;28933;52.492;13.434;2023-08-01T00:17:56;20.20;99.90
43338;DHT22;28933;52.492;13.434;2023-08-01T00:20:42;20.20;99.90
43338;DHT22;28933;52.492;13.434;2023-08-01T00:23:28;20.20;99.90
43338;DHT22;28933;52.492;13.434;2023-08-01T00:26:14;20.10;99.90
43338;DHT22;28933;52.492;13.434;2023-08-01T00:29:00;20.10;99.90
43338;DHT22;28933;52.492;13.434;2023-08-01T00:31:46;20.10;99.90
43338;DHT22;28933;52.492;13.434;2023-08-01T00:34:32;20.00;99.90
43338;DHT22;28933;52.492;13.434;2023-08-01T00:37:18;20.10;99.90
43338;DHT22;28933;52.492;13.434;2023-08-01T00:40:05;20.00;99.90
43338;DHT22;28933;52.492;13.434;2023-08-01T00:42:51;20.00;99.90
43338;DHT22;28933;52.492;13.434;2023-08-01T00:45:41;19.90;99.90
43338;DHT22;28933;52.492;13.434;2023-08-01T00:48:28;19.90;99.90
43338;DHT22;28933;52.492;13.434;2023-08-01T00:51:15;19.90;99.90
43338;DHT22;28933;52.492;13.434;2023-08-01T00:54:03;19.90;99.90
43338;DHT22;28933;52.492;13.434;2023-08-01T00:56:49;19.80;99.90
43338;DHT22;28933;52.492;13.434;2023-08-01T00:59:35;19.70;99.90
43338;DHT22;28933;52.492;13.434;2023-08-01T01:02:21;19.70;99.90
43338;DHT22;28933;52.492;13.434;2023-08-01T01:05:07;19.70;99.90
43338;DHT22;28933;52.492;13.434;2023-08-01T01:07:54;19.60;99.90
43338;DHT22;28933;52.492;13.434;2023-08-01T01:10:40;19.60;99.90
43338;DHT22;28933;52.492;13.434;2023-08-01T01:13:26;19.60;99.90
43338;DHT22;28933;52.492;13.434;2023-08-01T01:16:12;19.50;99.90
43338;DHT22;28933;52.492;13.434;2023-08-01T01:18:58;19.50;99.90
43338;DHT22;28933;52.492;13.434;2023-08-01T01:21:45;19.50;99.90
43338;DHT22;28933;52.492;13.434;2023-08-01T01:24:32;19.50;99.90
43338;DHT22;28933;52.492;13.434;2023-08-01T01:27:19;19.50;99.90
43338;DHT22;28933;52.492;13.434;2023-08-01T01:30:06;19.40;99.90
43338;DHT22;28933;52.492;13.434;2023-08-01T01:32:53;19.40;99.90
43338;DHT22;28933;52.492;13.434;2023-08-01T01:35:39;19.40;99.90
43338;DHT22;28933;52.492;13.434;2023-08-01T01:38:25;19.40;99.90
43338;DHT22;28933;52.492;13.434;2023-08-01T01:41:10;19.40;99.90
43338;DHT22;28933;52.492;13.434;2023-08-01T01:43:57;19.40;99.90
43338;DHT22;28933;52.492;13.434;2023-08-01T01:46:43;19.30;99.90
43338;DHT22;28933;52.492;13.434;2023-08-01T01:49:29;19.40;99.90
43338;DHT22;28933;52.492;13.434;2023-08-01T01:52:15;19.40;99.90
43338;DHT22;28933;52.492;13.434;2023-08-01T01:55:01;19.40;99.90
43338;DHT22;28933;52.492;13.434;2023-08-01T01:57:47;19.40;99.90
43338;DHT22;28933;52.492;13.434;2023-08-01T02:00:33;19.40;99.90
43338;DHT22;28933;52.492;13.434;2023-08-01T02:03:19;19.30;99.90
43338;DHT22;28933;52.492;13.434;2023-08-01T02:06:05;19.30;99.90
43338;DHT22;28933;52.492;13.434;2023-08-01T02:08:51;19.30;99.90
43338;DHT22;28933;52.492;13.434;2023-08-01T02:11:37;19.30;99.90
43338;DHT22;28933;52.492;13.434;2023-08-01T02:14:22;19.30;99.90
43338;DHT22;28933;52.492;13.434;2023-08-01T02:17:08;19.30;99.90
43338;DHT22;28933;52.492;13.434;2023-08-01T02:19:54;19.30;99.90
43338;DHT22;28933;52.492;13.434;2023-08-01T02:22:40;19.30;99.90
43338;DHT22;28933;52.492;13.434;2023-08-01T02:25:26;19.30;99.90
43338;DHT22;28933;52.492;13.434;2023-08-01T02:28:12;19.30;99.90
43338;DHT22;28933;52.492;13.434;2023-08-01T02:30:58;19.30;99.90
43338;DHT22;28933;52.492;13.434;2023-08-01T02:33:44;19.30;99.90
43338;DHT22;28933;52.492;13.434;2023-08-01T02:36:30;19.30;99.90
43338;DHT22;28933;52.492;13.434;2023-08-01T02:39:16;19.20;99.90
43338;DHT22;28933;52.492;13.434;2023-08-01T02:42:02;19.30;99.90
43338;DHT22;28933;52.492;13.434;2023-08-01T02:44:48;19.20;99.90
43338;DHT22;28933;52.492;13.434;2023-08-01T02:47:34;19.20;99.90
43338;DHT22;28933;52.492;13.434;2023-08-01T02:50:20;19.20;99.90
43338;DHT22;28933;52.492;13.434;2023-08-01T02:53:06;19.20;99.90
43338;DHT22;28933;52.492;13.434;2023-08-01T02:55:52;19.20;99.90
43338;DHT22;28933;52.492;13.434;2023-08-01T02:58:38;19.20;99.90
43338;DHT22;28933;52.492;13.434;2023-08-01T03:01:24;19.20;99.90
43338;DHT22;28933;52.492;13.434;2023-08-01T03:04:10;19.20;99.90
43338;DHT22;28933;52.492;13.434;2023-08-01T03:06:57;19.20;99.90
43338;DHT22;28933;52.492;13.434;2023-08-01T03:09:43;19.20;99.90
43338;DHT22;28933;52.492;13.434;2023-08-01T03:12:29;19.10;99.90
43338;DHT22;28933;52.492;13.434;2023-08-01T03:15:15;19.20;99.90
43338;DHT22;28933;52.492;13.434;2023-08-01T03:18:01;19.20;99.90
43338;DHT22;28933;52.492;13.434;2023-08-01T03:20:47;19.10;99.90
43338;DHT22;28933;52.492;13.434;2023-08-01T03:23:33;19.20;99.90
43338;DHT22;28933;52.492;13.434;2023-08-01T03:26:19;19.20;99.90
43338;DHT22;28933;52.492;13.434;2023-08-01T03:29:05;19.10;99.90
43338;DHT22;28933;52.492;13.434;2023-08-01T03:31:51;19.20;99.90
43338;DHT22;28933;52.492;13.434;2023-08-01T03:34:37;19.20;99.90
43338;DHT22;28933;52.492;13.434;2023-08-01T03:37:24;19.20;99.90
43338;DHT22;28933;52.492;13.434;2023-08-01T03:40:10;19.20;99.90
43338;DHT22;28933;52.492;13.434;2023-08-01T03:42:56;19.20;99.90
43338;DHT22;28933;52.492;13.434;2023-08-01T03:45:42;19.20;99.90
43338;DHT22;28933;52.492;13.434;2023-08-01T03:48:28;19.20;99.90
43338;DHT22;28933;52.492;13.434;2023-08-01T03:51:14;19.10;99.90
43338;DHT22;28933;52.492;13.434;2023-08-01T03:54:01;19.20;99.90
43338;DHT22;28933;52.492;13.434;2023-08-01T03:56:47;19.10;99.90
43338;DHT22;28933;52.492;13.434;2023-08-01T03:59:33;19.10;99.90
43338;DHT22;28933;52.492;13.434;2023-08-01T04:02:19;19.10;99.90
43338;DHT22;28933;52.492;13.434;2023-08-01T04:05:05;19.10;99.90
43338;DHT22;28933;52.492;13.434;2023-08-01T04:07:51;19.10;99.90
43338;DHT22;28933;52.492;13.434;2023-08-01T04:10:36;19.10;99.90
43338;DHT22;28933;52.492;13.434;2023-08-01T04:13:22;19.20;99.90
43338;DHT22;28933;52.492;13.434;2023-08-01T04:16:08;19.10;99.90
43338;DHT22;28933;52.492;13.434;2023-08-01T04:18:54;19.20;99.90
43338;DHT22;28933;52.492;13.434;2023-08-01T04:21:40;19.20;99.90
43338;DHT22;28933;52.492;13.434;2023-08-01T04:24:26;19.20;99.90
43338;DHT22;28933;52.492;13.434;2023-08-01T04:27:13;19.20;99.90
43338;DHT22;28933;52.492;13.434;2023-08-01T04:29:59;19.30;99.90
43338;DHT22;28933;52.492;13.434;2023-08-01T04:32:45;19.30;99.90
43338;DHT22;28933;52.492;13.434;2023-08-01T04:35:31;19.30;99.90
43338;DHT22;28933;52.492;13.434;2023-08-01T04:38:17;19.30;99.90
43338;DHT22;28933;52.492;13.434;2023-08-01T04:41:03;19.30;99.90
43338;DHT22;28933;52.492;13.434;2023-08-01T04:43:49;19.40;99.90
43338;DHT22;28933;52.492;13.434;2023-08-01T04:46:35;19.40;99.90
43338;DHT22;28933;52.492;13.434;2023-08-01T04:49:21;19.40;99.90
43338;DHT22;28933;52.492;13.434;2023-08-01T04:52:07;19.50;99.90
43338;DHT22;28933;52.492;13.434;2023-08-01T04:54:53;19.50;99.90
43338;DHT22;28933;52.492;13.434;2023-08-01T04:57:39;19.50;99.90
43338;DHT22;28933;52.492;13.434;2023-08-01T05:00:25;19.50;99.90
43338;DHT22;28933;52.492;13.434;2023-08-01T05:03:11;19.50;99.90
43338;DHT22;28933;52.492;13.434;2023-08-01T05:05:57;19.50;99.90
43338;DHT22;28933;52.492;13.434;2023-08-01T05:08:43;19.50;99.90
43338;DHT22;28933;52.492;13.434;2023-08-01T05:11:29;19.50;99.90
43338;DHT22;28933;52.492;13.434;2023-08-01T05:14:15;19.50;99.90
43338;DHT22;28933;52.492;13.434;2023-08-01T05:17:01;19.50;99.90
43338;DHT22;28933;52.492;13.434;2023-08-01T05:19:47;19.60;99.90
43338;DHT22;28933;52.492;13.434;2023-08-01T05:22:33;19.60;99.90
43338;DHT22;28933;52.492;13.434;2023-08-01T05:25:20;19.60;99.90
43338;DHT22;28933;52.492;13.434;2023-08-01T05:28:06;19.60;99.90
43338;DHT22;28933;52.492;13.434;2023-08-01T05:30:54;19.70;99.90
43338;DHT22;28933;52.492;13.434;2023-08-01T05:33:39;19.70;99.90
43338;DHT22;28933;52.492;13.434;2023-08-01T05:36:25;19.70;99.90
43338;DHT22;28933;52.492;13.434;2023-08-01T05:39:11;19.70;99.90
43338;DHT22;28933;52.492;13.434;2023-08-01T05:41:57;19.80;99.90
43338;DHT22;28933;52.492;13.434;2023-08-01T05:44:43;19.80;99.90
43338;DHT22;28933;52.492;13.434;2023-08-01T05:47:30;19.80;99.90
43338;DHT22;28933;52.492;13.434;2023-08-01T05:50:16;19.90;99.90
43338;DHT22;28933;52.492;13.434;2023-08-01T05:53:01;19.90;99.90
43338;DHT22;28933;52.492;13.434;2023-08-01T05:55:47;19.90;99.90
43338;DHT22;28933;52.492;13.434;2023-08-01T05:58:33;19.90;99.90
43338;DHT22;28933;52.492;13.434;2023-08-01T06:01:19;19.90;99.90
43338;DHT22;28933;52.492;13.434;2023-08-01T06:04:05;19.90;99.90
43338;DHT22;28933;52.492;13.434;2023-08-01T06:06:51;19.90;99.90
43338;DHT22;28933;52.492;13.434;2023-08-01T06:09:37;19.90;99.90
43338;DHT22;28933;52.492;13.434;2023-08-01T06:12:23;19.90;99.90
43338;DHT22;28933;52.492;13.434;2023-08-01T06:15:09;20.00;99.90
43338;DHT22;28933;52.492;13.434;2023-08-01T06:17:55;20.00;99.90
43338;DHT22;28933;52.492;13.434;2023-08-01T06:20:41;20.10;99.90
43338;DHT22;28933;52.492;13.434;2023-08-01T06:23:27;20.10;99.90
43338;DHT22;28933;52.492;13.434;2023-08-01T06:26:13;20.10;99.90
43338;DHT22;28933;52.492;13.434;2023-08-01T06:29:01;20.20;99.90
43338;DHT22;28933;52.492;13.434;2023-08-01T06:31:47;20.20;99.90
43338;DHT22;28933;52.492;13.434;2023-08-01T06:34:32;20.20;99.90
43338;DHT22;28933;52.492;13.434;2023-08-01T06:37:18;20.20;99.90
43338;DHT22;28933;52.492;13.434;2023-08-01T06:40:05;20.30;99.90
43338;DHT22;28933;52.492;13.434;2023-08-01T06:42:51;20.30;99.90
43338;DHT22;28933;52.492;13.434;2023-08-01T06:45:37;20.30;99.90
43338;DHT22;28933;52.492;13.434;2023-08-01T06:48:23;20.30;99.90
43338;DHT22;28933;52.492;13.434;2023-08-01T06:51:09;20.30;99.90
43338;DHT22;28933;52.492;13.434;2023-08-01T06:53:55;20.30;99.90
43338;DHT22;28933;52.492;13.434;2023-08-01T06:56:41;20.30;99.90
43338;DHT22;28933;52.492;13.434;2023-08-01T06:59:33;20.40;99.90
43338;DHT22;28933;52.492;13.434;2023-08-01T07:02:19;20.30;99.90
43338;DHT22;28933;52.492;13.434;2023-08-01T07:05:05;20.40;99.90
43338;DHT22;28933;52.492;13.434;2023-08-01T07:07:51;20.40;99.90
43338;DHT22;28933;52.492;13.434;2023-08-01T07:10:37;20.40;99.90
43338;DHT22;28933;52.492;13.434;2023-08-01T07:13:23;20.50;99.90
43338;DHT22;28933;52.492;13.434;2023-08-01T07:16:11;20.50;99.90
43338;DHT22;28933;52.492;13.434;2023-08-01T07:18:59;20.60;99.90
43338;DHT22;28933;52.492;13.434;2023-08-01T07:21:45;20.60;99.90
43338;DHT22;28933;52.492;13.434;2023-08-01T07:24:33;20.60;99.90
43338;DHT22;28933;52.492;13.434;2023-08-01T07:27:20;20.70;99.90
43338;DHT22;28933;52.492;13.434;2023-08-01T07:30:06;20.80;99.90
43338;DHT22;28933;52.492;13.434;2023-08-01T07:32:52;20.90;99.90
43338;DHT22;28933;52.492;13.434;2023-08-01T07:35:38;21.00;99.90
43338;DHT22;28933;52.492;13.434;2023-08-01T07:38:24;21.10;99.90
43338;DHT22;28933;52.492;13.434;2023-08-01T07:41:10;21.20;99.90
43338;DHT22;28933;52.492;13.434;2023-08-01T07:43:56;21.20;99.90
43338;DHT22;28933;52.492;13.434;2023-08-01T07:46:42;21.30;99.90
43338;DHT22;28933;52.492;13.434;2023-08-01T07:49:28;21.40;99.90
43338;DHT22;28933;52.492;13.434;2023-08-01T07:52:14;21.50;99.90
43338;DHT22;28933;52.492;13.434;2023-08-01T07:55:00;21.50;99.90
43338;DHT22;28933;52.492;13.434;2023-08-01T07:57:46;21.60;99.90
43338;DHT22;28933;52.492;13.434;2023-08-01T08:00:34;21.70;99.90
43338;DHT22;28933;52.492;13.434;2023-08-01T08:03:20;21.80;99.90
43338;DHT22;28933;52.492;13.434;2023-08-01T08:06:08;22.00;99.90
43338;DHT22;28933;52.492;13.434;2023-08-01T08:08:54;22.10;99.90
43338;DHT22;28933;52.492;13.434;2023-08-01T08:11:40;22.10;99.90
43338;DHT22;28933;52.492;13.434;2023-08-01T08:14:26;22.10;99.90
43338;DHT22;28933;52.492;13.434;2023-08-01T08:17:12;22.20;99.90
43338;DHT22;28933;52.492;13.434;2023-08-01T08:19:58;22.30;99.90
43338;DHT22;28933;52.492;13.434;2023-08-01T08:22:44;22.40;99.90
43338;DHT22;28933;52.492;13.434;2023-08-01T08:25:30;22.50;99.90
43338;DHT22;28933;52.492;13.434;2023-08-01T08:28:27;22.60;99.90
43338;DHT22;28933;52.492;13.434;2023-08-01T08:31:14;22.80;99.90
43338;DHT22;28933;52.492;13.434;2023-08-01T08:34:00;22.90;99.90
43338;DHT22;28933;52.492;13.434;2023-08-01T08:36:46;23.00;99.90
43338;DHT22;28933;52.492;13.434;2023-08-01T08:39:32;23.10;99.90
43338;DHT22;28933;52.492;13.434;2023-08-01T08:42:18;23.20;99.90
43338;DHT22;28933;52.492;13.434;2023-08-01T08:45:06;23.40;99.90
43338;DHT22;28933;52.492;13.434;2023-08-01T08:47:56;23.40;99.90
43338;DHT22;28933;52.492;13.434;2023-08-01T08:50:45;23.50;99.90
43338;DHT22;28933;52.492;13.434;2023-08-01T08:53:31;23.50;99.90
43338;DHT22;28933;52.492;13.434;2023-08-01T08:56:18;23.60;99.90
43338;DHT22;28933;52.492;13.434;2023-08-01T08:59:05;23.50;99.90
43338;DHT22;28933;52.492;13.434;2023-08-01T09:01:52;23.50;99.90
43338;DHT22;28933;52.492;13.434;2023-08-01T09:04:38;23.50;99.90
43338;DHT22;28933;52.492;13.434;2023-08-01T09:07:29;23.50;99.90
43338;DHT22;28933;52.492;13.434;2023-08-01T09:10:16;23.60;99.90
43338;DHT22;28933;52.492;13.434;2023-08-01T09:13:02;23.70;99.90
43338;DHT22;28933;52.492;13.434;2023-08-01T09:15:48;23.70;99.90
43338;DHT22;28933;52.492;13.434;2023-08-01T09:18:34;23.70;99.90
43338;DHT22;28933;52.492;13.434;2023-08-01T09:21:21;23.80;99.90
43338;DHT22;28933;52.492;13.434;2023-08-01T09:24:12;23.90;99.90
43338;DHT22;28933;52.492;13.434;2023-08-01T09:27:03;24.00;99.90
43338;DHT22;28933;52.492;13.434;2023-08-01T09:29:50;24.10;99.90
43338;DHT22;28933;52.492;13.434;2023-08-01T09:32:36;24.20;99.90
43338;DHT22;28933;52.492;13.434;2023-08-01T09:35:23;24.30;99.90
43338;DHT22;28933;52.492;13.434;2023-08-01T09:38:09;24.30;99.80
43338;DHT22;28933;52.492;13.434;2023-08-01T09:40:55;24.40;99.30
43338;DHT22;28933;52.492;13.434;2023-08-01T09:43:41;24.30;98.80
43338;DHT22;28933;52.492;13.434;2023-08-01T09:46:27;24.20;98.80
43338;DHT22;28933;52.492;13.434;2023-08-01T09:49:13;24.10;98.80
43338;DHT22;28933;52.492;13.434;2023-08-01T09:52:01;23.90;98.90
43338;DHT22;28933;52.492;13.434;2023-08-01T09:54:47;23.80;98.60
43338;DHT22;28933;52.492;13.434;2023-08-01T09:57:35;23.70;98.70
43338;DHT22;28933;52.492;13.434;2023-08-01T10:00:25;23.80;98.80
43338;DHT22;28933;52.492;13.434;2023-08-01T10:03:11;23.80;98.90
43338;DHT22;28933;52.492;13.434;2023-08-01T10:05:58;23.80;98.90
43338;DHT22;28933;52.492;13.434;2023-08-01T10:08:45;23.90;98.90
43338;DHT22;28933;52.492;13.434;2023-08-01T10:11:34;23.90;98.60
43338;DHT22;28933;52.492;13.434;2023-08-01T10:14:20;23.90;98.50
43338;DHT22;28933;52.492;13.434;2023-08-01T10:17:07;23.90;98.40
43338;DHT22;28933;52.492;13.434;2023-08-01T10:19:55;23.80;98.30
43338;DHT22;28933;52.492;13.434;2023-08-01T10:22:42;23.80;98.30
43338;DHT22;28933;52.492;13.434;2023-08-01T10:25:29;23.70;98.30
43338;DHT22;28933;52.492;13.434;2023-08-01T10:28:16;23.60;98.30
43338;DHT22;28933;52.492;13.434;2023-08-01T10:34:12;23.50;98.40
43338;DHT22;28933;52.492;13.434;2023-08-01T10:36:59;23.50;98.60
43338;DHT22;28933;52.492;13.434;2023-08-01T10:39:56;23.40;98.60
43338;DHT22;28933;52.492;13.434;2023-08-01T10:42:44;23.40;98.70
43338;DHT22;28933;52.492;13.434;2023-08-01T10:45:30;23.40;98.70
43338;DHT22;28933;52.492;13.434;2023-08-01T10:48:17;23.40;98.80
43338;DHT22;28933;52.492;13.434;2023-08-01T10:51:03;23.30;98.80
43338;DHT22;28933;52.492;13.434;2023-08-01T10:53:49;23.30;99.00
43338;DHT22;28933;52.492;13.434;2023-08-01T10:56:36;23.10;99.30
43338;DHT22;28933;52.492;13.434;2023-08-01T10:59:22;22.90;99.50
43338;DHT22;28933;52.492;13.434;2023-08-01T11:02:08;22.70;99.80
43338;DHT22;28933;52.492;13.434;2023-08-01T11:04:56;22.60;99.90
43338;DHT22;28933;52.492;13.434;2023-08-01T11:07:42;22.50;99.90
43338;DHT22;28933;52.492;13.434;2023-08-01T11:10:38;22.40;99.90
43338;DHT22;28933;52.492;13.434;2023-08-01T11:13:24;22.40;99.90
43338;DHT22;28933;52.492;13.434;2023-08-01T11:16:11;22.30;99.90
43338;DHT22;28933;52.492;13.434;2023-08-01T11:18:58;22.20;99.90
43338;DHT22;28933;52.492;13.434;2023-08-01T11:21:44;22.10;99.90
43338;DHT22;28933;52.492;13.434;2023-08-01T11:24:30;22.00;99.90
43338;DHT22;28933;52.492;13.434;2023-08-01T11:27:16;22.00;99.90
43338;DHT22;28933;52.492;13.434;2023-08-01T11:30:02;21.90;99.90
43338;DHT22;28933;52.492;13.434;2023-08-01T11:32:49;21.80;99.90
43338;DHT22;28933;52.492;13.434;2023-08-01T11:35:35;21.90;99.90
43338;DHT22;28933;52.492;13.434;2023-08-01T11:38:22;21.90;99.90
43338;DHT22;28933;52.492;13.434;2023-08-01T11:41:09;22.00;99.90
43338;DHT22;28933;52.492;13.434;2023-08-01T11:43:55;22.10;99.90
43338;DHT22;28933;52.492;13.434;2023-08-01T11:46:41;22.10;99.90
43338;DHT22;28933;52.492;13.434;2023-08-01T11:49:27;22.20;99.90
43338;DHT22;28933;52.492;13.434;2023-08-01T11:52:24;22.20;99.90
43338;DHT22;28933;52.492;13.434;2023-08-01T11:55:22;22.20;99.90
43338;DHT22;28933;52.492;13.434;2023-08-01T11:58:08;22.20;99.90
43338;DHT22;28933;52.492;13.434;2023-08-01T12:01:11;22.20;99.90
43338;DHT22;28933;52.492;13.434;2023-08-01T12:03:58;22.30;99.90
43338;DHT22;28933;52.492;13.434;2023-08-01T12:06:44;22.30;99.90
43338;DHT22;28933;52.492;13.434;2023-08-01T12:09:32;22.30;99.90
43338;DHT22;28933;52.492;13.434;2023-08-01T12:12:18;22.40;99.90
43338;DHT22;28933;52.492;13.434;2023-08-01T12:15:05;22.40;99.90
43338;DHT22;28933;52.492;13.434;2023-08-01T12:17:51;22.50;99.90
43338;DHT22;28933;52.492;13.434;2023-08-01T12:20:37;22.60;99.90
43338;DHT22;28933;52.492;13.434;2023-08-01T12:23:23;22.70;99.90
43338;DHT22;28933;52.492;13.434;2023-08-01T12:26:09;22.70;99.90
43338;DHT22;28933;52.492;13.434;2023-08-01T12:28:55;22.60;99.90
43338;DHT22;28933;52.492;13.434;2023-08-01T12:31:41;22.70;99.90
43338;DHT22;28933;52.492;13.434;2023-08-01T12:34:26;22.80;99.90
43338;DHT22;28933;52.492;13.434;2023-08-01T12:37:12;22.80;99.90
43338;DHT22;28933;52.492;13.434;2023-08-01T12:39:58;22.90;99.90
43338;DHT22;28933;52.492;13.434;2023-08-01T12:42:44;23.00;99.70
43338;DHT22;28933;52.492;13.434;2023-08-01T12:45:30;23.00;99.70
43338;DHT22;28933;52.492;13.434;2023-08-01T12:48:16;23.20;99.60
43338;DHT22;28933;52.492;13.434;2023-08-01T12:51:02;23.30;99.30
43338;DHT22;28933;52.492;13.434;2023-08-01T12:53:48;23.30;99.20
43338;DHT22;28933;52.492;13.434;2023-08-01T12:56:34;23.30;99.20
43338;DHT22;28933;52.492;13.434;2023-08-01T12:59:20;23.40;98.70
43338;DHT22;28933;52.492;13.434;2023-08-01T13:02:06;23.40;98.60
43338;DHT22;28933;52.492;13.434;2023-08-01T13:04:54;23.40;98.60
43338;DHT22;28933;52.492;13.434;2023-08-01T13:07:40;23.40;98.70
43338;DHT22;28933;52.492;13.434;2023-08-01T13:10:25;23.40;98.60
43338;DHT22;28933;52.492;13.434;2023-08-01T13:13:11;23.40;98.50
43338;DHT22;28933;52.492;13.434;2023-08-01T13:15:57;23.50;98.20
43338;DHT22;28933;52.492;13.434;2023-08-01T13:18:43;23.60;98.10
43338;DHT22;28933;52.492;13.434;2023-08-01T13:21:30;23.70;98.10
43338;DHT22;28933;52.492;13.434;2023-08-01T13:24:16;23.70;98.10
43338;DHT22;28933;52.492;13.434;2023-08-01T13:27:02;23.70;98.10
43338;DHT22;28933;52.492;13.434;2023-08-01T13:29:48;23.80;97.80
43338;DHT22;28933;52.492;13.434;2023-08-01T13:32:36;23.90;97.70
43338;DHT22;28933;52.492;13.434;2023-08-01T13:35:22;24.00;97.50
43338;DHT22;28933;52.492;13.434;2023-08-01T13:38:08;24.20;97.50
43338;DHT22;28933;52.492;13.434;2023-08-01T13:40:54;24.30;97.30
43338;DHT22;28933;52.492;13.434;2023-08-01T13:43:40;24.40;97.00
43338;DHT22;28933;52.492;13.434;2023-08-01T13:46:26;24.50;97.00
43338;DHT22;28933;52.492;13.434;2023-08-01T13:49:12;24.50;96.90
43338;DHT22;28933;52.492;13.434;2023-08-01T13:51:59;24.60;96.70
43338;DHT22;28933;52.492;13.434;2023-08-01T13:54:45;24.70;96.50
43338;DHT22;28933;52.492;13.434;2023-08-01T13:57:31;24.80;96.40
43338;DHT22;28933;52.492;13.434;2023-08-01T14:00:17;24.80;96.10
43338;DHT22;28933;52.492;13.434;2023-08-01T14:03:04;24.90;95.90
43338;DHT22;28933;52.492;13.434;2023-08-01T14:05:50;25.00;95.80
43338;DHT22;28933;52.492;13.434;2023-08-01T14:08:37;25.00;95.70
43338;DHT22;28933;52.492;13.434;2023-08-01T14:11:23;25.10;95.40
43338;DHT22;28933;52.492;13.434;2023-08-01T14:14:09;25.30;95.00
43338;DHT22;28933;52.492;13.434;2023-08-01T14:16:55;25.40;94.70
43338;DHT22;28933;52.492;13.434;2023-08-01T14:19:41;25.40;94.60
43338;DHT22;28933;52.492;13.434;2023-08-01T14:22:27;25.60;94.40
43338;DHT22;28933;52.492;13.434;2023-08-01T14:25:13;25.60;93.90
43338;DHT22;28933;52.492;13.434;2023-08-01T14:27:59;25.60;93.90
43338;DHT22;28933;52.492;13.434;2023-08-01T14:30:44;25.70;93.80
43338;DHT22;28933;52.492;13.434;2023-08-01T14:33:31;25.70;93.60
43338;DHT22;28933;52.492;13.434;2023-08-01T14:36:17;25.60;93.40
43338;DHT22;28933;52.492;13.434;2023-08-01T14:39:03;25.60;93.20
43338;DHT22;28933;52.492;13.434;2023-08-01T14:41:49;25.60;93.20
43338;DHT22;28933;52.492;13.434;2023-08-01T14:44:36;25.60;92.90
43338;DHT22;28933;52.492;13.434;2023-08-01T14:47:21;25.70;92.60
43338;DHT22;28933;52.492;13.434;2023-08-01T14:50:13;25.80;92.40
43338;DHT22;28933;52.492;13.434;2023-08-01T14:53:00;25.90;92.30
43338;DHT22;28933;52.492;13.434;2023-08-01T14:55:58;25.90;91.80
43338;DHT22;28933;52.492;13.434;2023-08-01T14:58:46;25.90;91.70
43338;DHT22;28933;52.492;13.434;2023-08-01T15:01:32;25.80;91.70
43338;DHT22;28933;52.492;13.434;2023-08-01T15:04:17;25.70;91.50
43338;DHT22;28933;52.492;13.434;2023-08-01T15:07:03;25.60;91.50
43338;DHT22;28933;52.492;13.434;2023-08-01T15:09:49;25.40;91.40
43338;DHT22;28933;52.492;13.434;2023-08-01T15:12:36;25.30;91.10
43338;DHT22;28933;52.492;13.434;2023-08-01T15:15:22;25.10;91.10
43338;DHT22;28933;52.492;13.434;2023-08-01T15:18:07;25.00;91.20
43338;DHT22;28933;52.492;13.434;2023-08-01T15:20:54;24.80;91.30
43338;DHT22;28933;52.492;13.434;2023-08-01T15:23:40;24.50;92.30
43338;DHT22;28933;52.492;13.434;2023-08-01T15:26:26;24.10;92.80
43338;DHT22;28933;52.492;13.434;2023-08-01T15:29:12;23.80;93.00
43338;DHT22;28933;52.492;13.434;2023-08-01T15:31:58;23.50;93.60
43338;DHT22;28933;52.492;13.434;2023-08-01T15:34:44;23.20;94.10
43338;DHT22;28933;52.492;13.434;2023-08-01T15:37:30;23.00;94.70
43338;DHT22;28933;52.492;13.434;2023-08-01T15:40:16;22.80;95.20
43338;DHT22;28933;52.492;13.434;2023-08-01T15:43:02;22.70;95.60
43338;DHT22;28933;52.492;13.434;2023-08-01T15:45:48;22.50;95.80
43338;DHT22;28933;52.492;13.434;2023-08-01T15:48:35;22.40;96.00
43338;DHT22;28933;52.492;13.434;2023-08-01T15:51:21;22.30;96.30
43338;DHT22;28933;52.492;13.434;2023-08-01T15:54:07;22.20;96.80
43338;DHT22;28933;52.492;13.434;2023-08-01T15:56:53;22.10;96.90
43338;DHT22;28933;52.492;13.434;2023-08-01T15:59:39;22.10;97.30
43338;DHT22;28933;52.492;13.434;2023-08-01T16:02:25;22.10;97.40
43338;DHT22;28933;52.492;13.434;2023-08-01T16:05:11;22.30;97.70
43338;DHT22;28933;52.492;13.434;2023-08-01T16:07:57;22.40;97.90
43338;DHT22;28933;52.492;13.434;2023-08-01T16:10:44;22.50;98.00
43338;DHT22;28933;52.492;13.434;2023-08-01T16:13:30;22.60;97.90
43338;DHT22;28933;52.492;13.434;2023-08-01T16:16:16;22.80;98.00
43338;DHT22;28933;52.492;13.434;2023-08-01T16:19:02;22.80;97.90
43338;DHT22;28933;52.492;13.434;2023-08-01T16:21:48;22.80;98.00
43338;DHT22;28933;52.492;13.434;2023-08-01T16:24:34;22.80;98.10
43338;DHT22;28933;52.492;13.434;2023-08-01T16:27:21;22.80;98.00
43338;DHT22;28933;52.492;13.434;2023-08-01T16:30:07;22.90;98.00
43338;DHT22;28933;52.492;13.434;2023-08-01T16:32:54;22.90;98.00
43338;DHT22;28933;52.492;13.434;2023-08-01T16:35:39;23.00;98.20
43338;DHT22;28933;52.492;13.434;2023-08-01T16:38:25;23.10;98.00
43338;DHT22;28933;52.492;13.434;2023-08-01T16:41:11;23.20;97.90
43338;DHT22;28933;52.492;13.434;2023-08-01T16:43:57;23.20;97.20
43338;DHT22;28933;52.492;13.434;2023-08-01T16:46:43;23.10;96.90
43338;DHT22;28933;52.492;13.434;2023-08-01T16:49:29;22.90;96.50
43338;DHT22;28933;52.492;13.434;2023-08-01T16:52:16;22.70;96.20
43338;DHT22;28933;52.492;13.434;2023-08-01T16:55:02;22.50;96.20
43338;DHT22;28933;52.492;13.434;2023-08-01T16:57:48;22.40;96.30
43338;DHT22;28933;52.492;13.434;2023-08-01T17:00:33;22.20;96.50
43338;DHT22;28933;52.492;13.434;2023-08-01T17:03:19;22.20;96.70
43338;DHT22;28933;52.492;13.434;2023-08-01T17:06:08;22.20;97.10
43338;DHT22;28933;52.492;13.434;2023-08-01T17:08:54;22.20;97.30
43338;DHT22;28933;52.492;13.434;2023-08-01T17:11:40;22.30;97.40
43338;DHT22;28933;52.492;13.434;2023-08-01T17:14:29;22.40;97.50
43338;DHT22;28933;52.492;13.434;2023-08-01T17:17:15;22.50;97.60